Hauptseite
METAR-TAF:

METAR-TAF

Flughäfen :

Flughafen Valence-Chabeuil

Valence, Frankreich

Breite: 44-54-58N, Länge: 4-58-06E, Höhe: 160 m

Beobachtung

Neuester Wetterbericht von vor 11 Stunden und 5 Minuten, um 18:00 UTC
Windstille
Temperatur 0°C
Luftfeuchtigkeit 93%
Luftdruck 1010 hPa
Sichtweite: 0800 m
Leicht bewölkt in der Höhe von 300 ft
Nebelschwaden

METAR: LFLU 161800Z AUTO 00000KT 2000 0800 BCFG FEW003 M00/M01 Q1010

Zeit: 06:05 (05:05 UTC)


TAF: fehlend

Wetterbeobachtungen und Prognosen von mehr als 4000 Flughäfen (METAR und TAF Bericht).

Die verfügbaren Stationen werden durch gelbe und rote Markierungen auf der Karte dargestellt.

Führen Sie die Maus auf sie, um den Namen der Station zu sehen.

Darauf klicken, um die Beobachtung von Wetterbeobachtungen und Prognosen zu sehen.

Um die Karte zu ändern : klicken Sie auf den grünen Tasten mit einem schwarzen Kreuz Zum Vergrößern, auf den grünen Button mit einem Gedankenstrich zu verkleinern, oder auf die grünen Pfeile für benachbarte Karten.


METAR-TAF: